Time;durP1;ratioP1;P1;durP2;ratioP2;P2;SDS_P1;SDS_P2;PMS_P1;PMS_P2;Temp;Humidity;BMP_temperature;BMP_pressure;BME280_temperature;BME280_humidity;BME280_pressure;Samples;Min_cycle;Max_cycle;Signal;HPM_P1;HPM_P2
2022/01/30 00:01:57;;;;;;;;;;;;;;;5.35;93.43;102191.94;2567669;30;139176;-38
2022/01/30 00:04:25;;;;;;;;;;;;;;;5.37;93.66;102194.53;2568311;30;137052;-38
2022/01/30 00:06:53;;;;;;;;;;;;;;;5.25;94.22;102194.66;2568515;30;138855;-38
2022/01/30 00:09:22;;;;;;;;;;;;;;;5.19;94.44;102200.66;2568941;30;137899;-37
2022/01/30 00:11:55;;;;;;;;;;;;;;;5.13;94.76;102199.38;2568149;30;137441;-38
2022/01/30 00:14:25;;;;;;;;;;;;;;;5.10;95.35;102198.81;2568450;30;136794;-38
2022/01/30 00:17:18;;;;;;;;;;;;;;;5.04;95.24;102195.69;2568955;30;138218;-38
2022/01/30 00:19:48;;;;;;;;;;;;;;;4.96;95.96;102205.50;2567637;30;138006;-37
2022/01/30 00:27:17;;;;;;;;;;;;;;;4.99;95.64;102210.63;2568046;30;137496;-38
2022/01/30 00:29:45;;;;;;;;;;;;;;;4.87;95.73;102208.03;2567724;30;137917;-38
2022/01/30 00:32:13;;;;;;;;;;;;;;;4.81;95.90;102203.19;2568247;30;139653;-38
2022/01/30 00:35:01;;;;;;;;;;;;;;;4.74;96.21;102205.59;2568210;30;139407;-38
2022/01/30 00:37:29;;;;;;;;;;;;;;;4.67;96.74;102209.88;2567346;30;138325;-38
2022/01/30 00:39:57;;;;;;;;;;;;;;;4.67;96.49;102209.03;2567393;30;139485;-38
2022/01/30 00:42:24;;;;;;;;;;;;;;;4.66;96.57;102223.53;2568079;30;137434;-38
2022/01/30 00:44:53;;;;;;;;;;;;;;;4.64;96.59;102239.88;2568997;30;136820;-38
2022/01/30 00:47:21;;;;;;;;;;;;;;;4.67;96.04;102241.47;2566723;30;138314;-38
2022/01/30 00:49:49;;;;;;;;;;;;;;;4.61;96.74;102234.75;2568606;30;138763;-37
2022/01/30 00:52:17;;;;;;;;;;;;;;;4.63;96.90;102230.06;2568330;30;139305;-38
2022/01/30 00:54:45;;;;;;;;;;;;;;;4.68;96.84;102233.22;2567875;30;139776;-38
2022/01/30 00:57:13;;;;;;;;;;;;;;;4.65;96.60;102225.38;2566442;30;139449;-38
2022/01/30 00:59:40;;;;;;;;;;;;;;;4.77;96.13;102233.34;2568129;30;136939;-38
2022/01/30 01:02:08;;;;;;;;;;;;;;;4.79;95.81;102237.66;2567950;30;140542;-37
2022/01/30 01:04:40;;;;;;;;;;;;;;;4.81;95.57;102237.53;2567446;30;137794;-37
2022/01/30 01:07:14;;;;;;;;;;;;;;;4.75;95.42;102233.50;2568630;30;138457;-38
2022/01/30 01:09:48;;;;;;;;;;;;;;;4.82;95.11;102241.94;2567670;30;138142;-37
2022/01/30 01:25:57;;;;;;;;;;;;;;;4.61;95.49;102241.00;2568671;30;137152;-40
2022/01/30 01:28:25;;;;;;;;;;;;;;;4.56;95.47;102248.69;2567952;30;138883;-40
2022/01/30 01:30:53;;;;;;;;;;;;;;;4.55;95.35;102246.13;2567575;30;138040;-40
2022/01/30 01:33:25;;;;;;;;;;;;;;;4.50;95.46;102251.94;2566565;30;140677;-40
2022/01/30 01:35:53;;;;;;;;;;;;;;;4.51;95.61;102248.25;2568974;30;137063;-40
2022/01/30 01:38:21;;;;;;;;;;;;;;;4.43;95.09;102248.94;2569802;30;137301;-40
2022/01/30 01:40:54;;;;;;;;;;;;;;;4.38;95.81;102243.09;2568532;30;139024;-39
2022/01/30 01:43:22;;;;;;;;;;;;;;;4.38;95.84;102242.25;2569804;30;139398;-40
2022/01/30 01:45:52;;;;;;;;;;;;;;;4.39;95.57;102244.78;2568514;30;136959;-40
2022/01/30 01:48:20;;;;;;;;;;;;;;;4.29;95.89;102238.50;2569472;30;139201;-39
2022/01/30 01:51:05;;;;;;;;;;;;;;;4.27;96.59;102226.97;2569798;30;137075;-40
2022/01/30 01:53:33;;;;;;;;;;;;;;;4.14;96.34;102232.63;2569028;30;139094;-39
2022/01/30 01:56:01;;;;;;;;;;;;;;;4.06;96.51;102233.28;2569519;30;138042;-39
2022/01/30 01:58:32;;;;;;;;;;;;;;;4.05;96.42;102220.78;2567984;30;139256;-40
2022/01/30 02:01:18;;;;;;;;;;;;;;;4.21;95.79;102224.81;2568898;30;137027;-39
2022/01/30 02:03:47;;;;;;;;;;;;;;;4.12;96.20;102232.75;2567593;30;137102;-39
2022/01/30 02:06:19;;;;;;;;;;;;;;;4.12;95.66;102246.25;2567219;30;138500;-39
2022/01/30 02:09:10;;;;;;;;;;;;;;;4.08;96.19;102239.41;2568987;30;138197;-40
2022/01/30 02:11:42;;;;;;;;;;;;;;;4.00;96.39;102244.63;2568363;30;138506;-40
2022/01/30 02:25:38;;;;;;;;;;;;;;;3.84;96.70;102256.75;2568106;30;139696;-39
2022/01/30 02:28:12;;;;;;;;;;;;;;;3.85;96.70;102247.66;2567883;30;137391;-39
2022/01/30 02:30:46;;;;;;;;;;;;;;;3.79;96.99;102256.31;2566838;30;138881;-40
2022/01/30 02:33:14;;;;;;;;;;;;;;;3.89;96.31;102261.78;2567525;30;139450;-40
2022/01/30 02:35:42;;;;;;;;;;;;;;;3.94;95.89;102266.75;2570117;30;137223;-40
2022/01/30 02:38:09;;;;;;;;;;;;;;;4.00;95.76;102282.44;2566189;30;139341;-40
2022/01/30 02:40:41;;;;;;;;;;;;;;;4.05;96.16;102274.78;2568413;30;138491;-40
2022/01/30 02:43:09;;;;;;;;;;;;;;;3.99;96.81;102286.13;2568339;30;136994;-40
2022/01/30 02:45:48;;;;;;;;;;;;;;;4.01;96.03;102287.69;2568389;30;137506;-40
2022/01/30 02:48:29;;;;;;;;;;;;;;;4.08;95.94;102287.16;2569246;30;137928;-40
2022/01/30 02:51:09;;;;;;;;;;;;;;;4.12;96.18;102292.16;2566964;30;138471;-40
2022/01/30 02:53:41;;;;;;;;;;;;;;;4.18;95.46;102294.31;2568898;30;138627;-40
2022/01/30 02:56:09;;;;;;;;;;;;;;;4.20;95.79;102290.63;2568661;30;137378;-39
2022/01/30 02:58:37;;;;;;;;;;;;;;;4.18;96.33;102304.28;2568119;30;139477;-40
2022/01/30 03:01:05;;;;;;;;;;;;;;;4.20;96.13;102298.75;2567435;30;139828;-40
2022/01/30 03:03:33;;;;;;;;;;;;;;;4.18;96.02;102297.03;2569582;30;137052;-40
2022/01/30 03:06:01;;;;;;;;;;;;;;;4.17;96.26;102295.31;2568384;30;140280;-40
2022/01/30 03:08:29;;;;;;;;;;;;;;;4.17;96.21;102298.03;2568277;30;138969;-40
2022/01/30 03:10:57;;;;;;;;;;;;;;;4.24;96.35;102303.75;2568656;30;138390;-40
2022/01/30 03:13:24;;;;;;;;;;;;;;;4.24;96.00;102300.19;2567667;30;138926;-40
2022/01/30 03:15:52;;;;;;;;;;;;;;;4.28;95.62;102296.25;2567513;30;138517;-40
2022/01/30 03:18:20;;;;;;;;;;;;;;;4.23;96.31;102299.34;2569220;30;137468;-40
2022/01/30 03:20:48;;;;;;;;;;;;;;;4.27;96.02;102292.66;2567364;30;139737;-40
2022/01/30 03:23:16;;;;;;;;;;;;;;;4.30;95.30;102305.91;2568234;30;138570;-39
2022/01/30 03:25:44;;;;;;;;;;;;;;;4.29;95.49;102303.34;2566816;38;139228;-39
2022/01/30 03:28:40;;;;;;;;;;;;;;;4.29;95.61;102311.47;2568169;30;137892;-39
2022/01/30 03:31:19;;;;;;;;;;;;;;;4.27;95.57;102299.94;2568209;30;140376;-39
2022/01/30 03:33:48;;;;;;;;;;;;;;;4.25;96.78;102296.50;2568235;30;139481;-39
2022/01/30 03:36:22;;;;;;;;;;;;;;;4.24;96.88;102298.34;2567640;30;140490;-40
2022/01/30 03:38:50;;;;;;;;;;;;;;;4.24;96.16;102300.19;2569502;30;137143;-39
2022/01/30 03:41:18;;;;;;;;;;;;;;;4.24;95.52;102302.88;2567407;30;140266;-39
2022/01/30 03:43:46;;;;;;;;;;;;;;;4.20;96.38;102309.53;2567451;30;137441;-40
2022/01/30 03:46:17;;;;;;;;;;;;;;;4.23;96.16;102296.63;2567432;30;138248;-40
2022/01/30 03:48:45;;;;;;;;;;;;;;;4.14;96.12;102305.56;2569085;30;138262;-40
2022/01/30 03:51:22;;;;;;;;;;;;;;;4.16;96.30;102311.69;2570067;30;138243;-39
2022/01/30 03:53:49;;;;;;;;;;;;;;;4.14;96.31;102314.50;2567729;30;138790;-39
2022/01/30 03:56:17;;;;;;;;;;;;;;;4.11;96.83;102317.47;2566939;30;140700;-39
2022/01/30 03:58:45;;;;;;;;;;;;;;;4.11;96.10;102316.59;2569428;30;136775;-40
2022/01/30 04:01:15;;;;;;;;;;;;;;;4.07;96.86;102313.31;2567211;30;140488;-39
2022/01/30 04:03:43;;;;;;;;;;;;;;;4.08;96.81;102325.84;2566945;30;138387;-40
2022/01/30 04:06:12;;;;;;;;;;;;;;;4.01;97.20;102327.38;2566717;30;138094;-40
2022/01/30 04:08:41;;;;;;;;;;;;;;;3.95;97.59;102319.78;2566517;30;139727;-39
2022/01/30 04:11:29;;;;;;;;;;;;;;;3.85;97.80;102331.38;2568452;30;137346;-39
2022/01/30 04:14:26;;;;;;;;;;;;;;;3.78;97.72;102327.50;2564649;30;136945;-40
2022/01/30 04:17:01;;;;;;;;;;;;;;;3.74;97.80;102326.03;2568927;30;136997;-40
2022/01/30 04:19:47;;;;;;;;;;;;;;;3.67;98.69;102325.69;2566914;30;138168;-40
2022/01/30 04:22:34;;;;;;;;;;;;;;;3.65;97.91;102324.97;2568106;30;136992;-39
2022/01/30 04:25:37;;;;;;;;;;;;;;;3.60;98.11;102325.34;2567881;30;136837;-39
2022/01/30 04:28:28;;;;;;;;;;;;;;;3.50;98.60;102331.66;2567860;30;137596;-39
2022/01/30 04:31:21;;;;;;;;;;;;;;;3.47;98.80;102329.22;2567924;30;136880;-39
2022/01/30 04:34:07;;;;;;;;;;;;;;;3.40;99.08;102334.25;2566449;30;139482;-39
2022/01/30 04:37:00;;;;;;;;;;;;;;;3.36;99.67;102332.81;2569128;30;137268;-39
2022/01/30 05:04:49;;;;;;;;;;;;;;;2.95;100.00;102357.69;2567568;30;137470;-39
2022/01/30 05:07:48;;;;;;;;;;;;;;;3.01;100.00;102356.31;2566534;30;137104;-39
2022/01/30 05:10:34;;;;;;;;;;;;;;;3.01;100.00;102359.88;2568514;30;137264;-40
2022/01/30 05:13:35;;;;;;;;;;;;;;;3.05;100.00;102371.28;2568377;30;136718;-39
2022/01/30 05:16:19;;;;;;;;;;;;;;;3.10;100.00;102370.88;2564825;30;139982;-39
2022/01/30 05:19:13;;;;;;;;;;;;;;;3.10;100.00;102382.53;2566380;30;136775;-40
2022/01/30 05:22:04;;;;;;;;;;;;;;;3.13;100.00;102389.50;2566911;30;138969;-39
2022/01/30 05:24:45;;;;;;;;;;;;;;;3.27;100.00;102394.66;2568457;30;139080;-39
2022/01/30 05:27:33;;;;;;;;;;;;;;;3.25;100.00;102399.31;2568244;30;138264;-40
2022/01/30 05:30:39;;;;;;;;;;;;;;;3.31;100.00;102395.22;2568029;30;137403;-39
2022/01/30 05:33:12;;;;;;;;;;;;;;;3.34;100.00;102391.44;2568728;30;138328;-40
2022/01/30 05:35:41;;;;;;;;;;;;;;;3.39;100.00;102375.72;2568323;30;136843;-40
2022/01/30 05:38:38;;;;;;;;;;;;;;;3.37;100.00;102380.38;2565867;30;137471;-40
2022/01/30 05:41:24;;;;;;;;;;;;;;;3.33;100.00;102376.22;2568786;30;137027;-39
2022/01/30 05:44:19;;;;;;;;;;;;;;;3.30;100.00;102383.59;2568839;30;137017;-39
2022/01/30 05:46:58;;;;;;;;;;;;;;;3.31;100.00;102385.31;2568455;30;137229;-39
2022/01/30 05:49:51;;;;;;;;;;;;;;;3.20;100.00;102379.97;2567497;30;140129;-40
2022/01/30 05:52:39;;;;;;;;;;;;;;;3.20;100.00;102384.47;2565841;30;137173;-39
2022/01/30 05:55:11;;;;;;;;;;;;;;;3.18;100.00;102379.19;2567489;30;138272;-39
2022/01/30 05:57:42;;;;;;;;;;;;;;;3.13;100.00;102389.50;2568113;30;137094;-39
2022/01/30 06:00:13;;;;;;;;;;;;;;;3.10;100.00;102392.47;2568169;30;138576;-39
2022/01/30 06:02:54;;;;;;;;;;;;;;;3.05;100.00;102411.72;2566788;30;137991;-40
2022/01/30 06:05:24;;;;;;;;;;;;;;;3.00;100.00;102413.91;2566105;30;139232;-39
2022/01/30 06:07:54;;;;;;;;;;;;;;;3.05;100.00;102413.56;2567718;30;137180;-39
2022/01/30 06:10:23;;;;;;;;;;;;;;;3.02;100.00;102417.34;2567335;30;137368;-39
2022/01/30 06:12:51;;;;;;;;;;;;;;;2.98;100.00;102414.06;2567141;30;138672;-39
2022/01/30 06:15:20;;;;;;;;;;;;;;;2.95;100.00;102417.00;2566561;30;137309;-39
2022/01/30 06:17:53;;;;;;;;;;;;;;;2.94;100.00;102425.19;2567716;30;138378;-40
2022/01/30 06:20:46;;;;;;;;;;;;;;;2.90;100.00;102435.34;2567967;30;137132;-40
2022/01/30 06:23:36;;;;;;;;;;;;;;;2.90;100.00;102438.06;2568651;30;136803;-39
2022/01/30 06:26:42;;;;;;;;;;;;;;;2.90;100.00;102453.41;2566696;30;137636;-40
2022/01/30 06:29:36;;;;;;;;;;;;;;;2.93;100.00;102445.06;2566216;30;136820;-39
2022/01/30 06:32:16;;;;;;;;;;;;;;;3.02;99.76;102450.56;2568687;30;136938;-39
2022/01/30 06:35:03;;;;;;;;;;;;;;;3.01;99.87;102454.25;2569619;30;136650;-39
2022/01/30 06:38:06;;;;;;;;;;;;;;;3.11;98.79;102459.78;2568939;30;138244;-39
2022/01/30 06:40:53;;;;;;;;;;;;;;;3.17;98.69;102461.09;2566058;30;137000;-39
2022/01/30 06:43:32;;;;;;;;;;;;;;;3.15;99.06;102468.47;2569327;30;137529;-40
2022/01/30 06:46:19;;;;;;;;;;;;;;;3.16;99.37;102473.75;2568041;30;136695;-39
2022/01/30 06:49:05;;;;;;;;;;;;;;;3.19;98.85;102474.47;2568379;30;137534;-39
2022/01/30 06:52:09;;;;;;;;;;;;;;;3.27;99.56;102472.88;2566653;30;137435;-39
2022/01/30 06:54:55;;;;;;;;;;;;;;;3.29;97.63;102481.72;2568276;30;136972;-40
2022/01/30 06:57:43;;;;;;;;;;;;;;;3.29;98.37;102473.63;2569361;30;136932;-40
2022/01/30 07:00:29;;;;;;;;;;;;;;;3.35;97.93;102483.06;2569115;30;136887;-40
2022/01/30 07:03:29;;;;;;;;;;;;;;;3.30;98.54;102485.25;2567422;30;136755;-39
2022/01/30 07:06:18;;;;;;;;;;;;;;;3.33;98.41;102486.84;2567199;30;137640;-40
2022/01/30 07:08:46;;;;;;;;;;;;;;;3.37;97.97;102488.31;2568898;30;137072;-39
2022/01/30 07:11:15;;;;;;;;;;;;;;;3.38;97.92;102492.72;2568426;30;138696;-40
2022/01/30 07:13:43;;;;;;;;;;;;;;;3.53;96.50;102505.00;2569426;30;136776;-39
2022/01/30 07:16:13;;;;;;;;;;;;;;;3.51;97.32;102506.97;2567143;30;137164;-40
2022/01/30 07:18:41;;;;;;;;;;;;;;;3.49;96.93;102505.34;2568095;30;137238;-40
2022/01/30 07:21:11;;;;;;;;;;;;;;;3.55;96.26;102505.72;2567736;30;140282;-38
2022/01/30 07:23:39;;;;;;;;;;;;;;;3.55;96.91;102510.25;2568210;30;137274;-37
2022/01/30 07:26:07;;;;;;;;;;;;;;;3.53;97.03;102510.41;2568663;30;138533;-37
2022/01/30 07:28:34;;;;;;;;;;;;;;;3.59;97.52;102509.03;2568437;30;137240;-38
2022/01/30 07:31:02;;;;;;;;;;;;;;;3.59;96.38;102504.50;2567096;30;138127;-38
2022/01/30 07:33:31;;;;;;;;;;;;;;;3.65;96.15;102510.38;2569146;30;137659;-38
2022/01/30 07:35:59;;;;;;;;;;;;;;;3.63;96.34;102507.81;2569213;30;138242;-38
2022/01/30 07:38:27;;;;;;;;;;;;;;;3.62;96.57;102513.31;2567148;30;137567;-38
2022/01/30 07:40:55;;;;;;;;;;;;;;;3.64;95.08;102522.16;2568859;30;136797;-37
2022/01/30 07:43:23;;;;;;;;;;;;;;;3.62;96.15;102516.03;2569802;30;137144;-38
2022/01/30 07:46:01;;;;;;;;;;;;;;;3.65;95.83;102526.56;2568630;30;139674;-38
2022/01/30 07:48:29;;;;;;;;;;;;;;;3.62;97.15;102521.41;2569070;30;137212;-38
2022/01/30 07:50:57;;;;;;;;;;;;;;;3.57;97.61;102528.06;2566634;30;138406;-38
2022/01/30 07:53:25;;;;;;;;;;;;;;;3.60;98.11;102526.97;2568783;30;137043;-37
2022/01/30 07:55:54;;;;;;;;;;;;;;;3.60;96.90;102522.41;2568802;30;139102;-38
2022/01/30 07:58:21;;;;;;;;;;;;;;;3.59;97.92;102525.25;2566652;30;137141;-37
2022/01/30 08:00:50;;;;;;;;;;;;;;;3.53;96.61;102532.00;2568336;30;138288;-37
2022/01/30 08:03:17;;;;;;;;;;;;;;;3.47;96.86;102532.50;2568635;30;137186;-38
2022/01/30 08:05:46;;;;;;;;;;;;;;;3.42;96.26;102537.38;2568817;30;138342;-37
2022/01/30 08:08:13;;;;;;;;;;;;;;;3.34;96.63;102534.44;2568522;30;137137;-37
2022/01/30 08:10:41;;;;;;;;;;;;;;;3.33;96.80;102543.50;2567704;30;138186;-38
2022/01/30 08:13:09;;;;;;;;;;;;;;;3.35;96.55;102546.94;2568886;30;137296;-38
2022/01/30 08:15:37;;;;;;;;;;;;;;;3.35;96.62;102547.81;2568570;30;138338;-38
2022/01/30 08:18:08;;;;;;;;;;;;;;;3.38;96.29;102558.38;2568820;30;137882;-38
2022/01/30 08:20:36;;;;;;;;;;;;;;;3.40;96.46;102553.69;2568578;30;138565;-38
2022/01/30 08:23:11;;;;;;;;;;;;;;;3.51;96.93;102557.38;2568394;30;137804;-38
2022/01/30 08:25:40;;;;;;;;;;;;;;;3.53;95.29;102556.28;2571340;30;138269;-38
2022/01/30 08:28:08;;;;;;;;;;;;;;;3.59;95.48;102561.19;2568151;30;137167;-38
2022/01/30 08:30:36;;;;;;;;;;;;;;;3.69;95.39;102565.81;2568569;30;137966;-38
2022/01/30 08:33:04;;;;;;;;;;;;;;;3.76;94.56;102564.34;2569403;30;137048;-37
2022/01/30 08:35:32;;;;;;;;;;;;;;;3.82;94.85;102560.28;2567918;30;139242;-38
2022/01/30 08:37:59;;;;;;;;;;;;;;;3.87;94.84;102564.34;2567523;30;137105;-38
2022/01/30 08:40:27;;;;;;;;;;;;;;;3.94;93.39;102566.53;2566730;30;139282;-38
2022/01/30 08:42:55;;;;;;;;;;;;;;;4.00;92.79;102563.34;2568953;30;136841;-38
2022/01/30 08:45:23;;;;;;;;;;;;;;;4.01;92.95;102559.66;2568861;30;137458;-38
2022/01/30 08:47:51;;;;;;;;;;;;;;;4.05;93.06;102552.13;2568070;30;136966;-38
2022/01/30 08:50:20;;;;;;;;;;;;;;;4.09;92.68;102567.09;2568283;30;138451;-38
2022/01/30 08:52:49;;;;;;;;;;;;;;;4.19;93.05;102570.78;2568836;30;137326;-38
2022/01/30 08:55:17;;;;;;;;;;;;;;;4.27;92.39;102565.59;2567607;30;138288;-38
2022/01/30 08:57:44;;;;;;;;;;;;;;;4.27;92.21;102560.19;2569204;30;137317;-38
2022/01/30 09:00:13;;;;;;;;;;;;;;;4.27;91.90;102564.75;2567457;30;137379;-38
2022/01/30 09:02:41;;;;;;;;;;;;;;;4.26;91.37;102573.84;2568451;30;137049;-37
2022/01/30 09:05:10;;;;;;;;;;;;;;;4.26;92.76;102569.28;2568672;30;138909;-38
2022/01/30 09:07:39;;;;;;;;;;;;;;;4.34;92.61;102568.63;2568690;30;137318;-38
2022/01/30 09:10:08;;;;;;;;;;;;;;;4.47;91.38;102566.59;2568912;30;138519;-38
2022/01/30 09:12:36;;;;;;;;;;;;;;;4.54;90.75;102577.75;2566351;30;138068;-38
2022/01/30 09:15:05;;;;;;;;;;;;;;;4.63;91.84;102581.53;2568523;30;138273;-38
2022/01/30 09:17:33;;;;;;;;;;;;;;;4.62;90.25;102577.13;2567743;30;137029;-38
2022/01/30 09:20:02;;;;;;;;;;;;;;;4.64;90.12;102563.47;2568850;30;138170;-38
2022/01/30 09:22:30;;;;;;;;;;;;;;;4.75;89.84;102579.63;2567330;30;137695;-37
2022/01/30 09:24:58;;;;;;;;;;;;;;;4.80;89.88;102572.00;2565592;30;138184;-38
2022/01/30 09:27:26;;;;;;;;;;;;;;;4.85;89.07;102580.56;2567539;30;137436;-38
2022/01/30 09:29:54;;;;;;;;;;;;;;;4.90;90.38;102582.88;2565698;30;138836;-38
2022/01/30 09:32:22;;;;;;;;;;;;;;;4.88;89.69;102577.59;2568943;30;137134;-38
2022/01/30 09:34:49;;;;;;;;;;;;;;;4.90;90.30;102581.00;2567980;30;137416;-38
2022/01/30 09:37:17;;;;;;;;;;;;;;;4.92;89.81;102580.91;2567963;30;137868;-38
2022/01/30 09:39:45;;;;;;;;;;;;;;;4.99;89.55;102592.06;2566967;30;138375;-37
2022/01/30 09:42:14;;;;;;;;;;;;;;;5.03;88.88;102577.28;2567253;30;136599;-38
2022/01/30 09:44:42;;;;;;;;;;;;;;;5.14;88.75;102576.34;2567894;30;139005;-38
2022/01/30 09:47:11;;;;;;;;;;;;;;;5.15;87.29;102580.75;2568490;30;137208;-38
2022/01/30 09:49:40;;;;;;;;;;;;;;;5.22;87.52;102576.53;2568939;30;138492;-38
2022/01/30 09:52:09;;;;;;;;;;;;;;;5.30;85.94;102571.31;2567804;30;136755;-38
2022/01/30 09:54:36;;;;;;;;;;;;;;;5.37;86.25;102571.59;2568153;30;137591;-38
2022/01/30 09:57:04;;;;;;;;;;;;;;;5.43;86.90;102554.81;2568184;30;137913;-38
2022/01/30 09:59:32;;;;;;;;;;;;;;;5.42;84.43;102568.50;2567749;30;138192;-38
2022/01/30 10:02:07;;;;;;;;;;;;;;;5.44;84.99;102570.09;2567278;30;137794;-38
2022/01/30 10:04:35;;;;;;;;;;;;;;;5.59;83.17;102570.59;2568347;30;139541;-37
2022/01/30 10:07:09;;;;;;;;;;;;;;;5.71;82.24;102562.34;2569223;30;137254;-37
2022/01/30 10:09:43;;;;;;;;;;;;;;;5.84;81.01;102573.81;2568810;30;138464;-38
2022/01/30 10:14:49;;;;;;;;;;;;;;;5.97;79.88;102568.13;2566879;30;138344;-38
2022/01/30 10:17:26;;;;;;;;;;;;;;;5.99;79.16;102571.56;2567485;30;136820;-38
2022/01/30 10:20:05;;;;;;;;;;;;;;;6.03;80.49;102570.31;2567367;30;138921;-38
2022/01/30 10:22:34;;;;;;;;;;;;;;;6.08;80.50;102574.44;2568991;30;137249;-38
2022/01/30 10:25:02;;;;;;;;;;;;;;;6.09;77.77;102576.16;2568503;30;138434;-38
2022/01/30 10:27:32;;;;;;;;;;;;;;;6.13;79.18;102569.47;2568676;30;136958;-38
2022/01/30 10:30:03;;;;;;;;;;;;;;;6.16;79.09;102572.75;2568817;30;137811;-38
2022/01/30 10:32:31;;;;;;;;;;;;;;;6.26;80.10;102574.63;2569624;30;137208;-38
2022/01/30 10:35:03;;;;;;;;;;;;;;;6.28;78.18;102573.50;2568536;30;137323;-38
2022/01/30 10:37:36;;;;;;;;;;;;;;;6.35;76.08;102573.75;2567104;30;137263;-38
2022/01/30 10:40:08;;;;;;;;;;;;;;;6.51;76.95;102581.34;2569181;30;138571;-38
2022/01/30 10:42:38;;;;;;;;;;;;;;;6.60;76.59;102575.06;2569910;30;136850;-38
2022/01/30 10:45:24;;;;;;;;;;;;;;;6.44;75.23;102572.06;2567039;30;139184;-37
2022/01/30 10:48:07;;;;;;;;;;;;;;;6.36;75.29;102570.03;2567753;30;137444;-38
2022/01/30 10:50:35;;;;;;;;;;;;;;;6.35;75.25;102565.63;2568332;30;139229;-38
2022/01/30 10:53:04;;;;;;;;;;;;;;;6.37;75.22;102571.78;2569423;30;137238;-38
2022/01/30 10:55:37;;;;;;;;;;;;;;;6.41;74.78;102565.09;2570461;30;137132;-38
2022/01/30 10:58:06;;;;;;;;;;;;;;;6.47;75.08;102569.94;2567410;30;137307;-38
2022/01/30 11:00:37;;;;;;;;;;;;;;;6.51;72.02;102566.94;2568488;30;138332;-38
2022/01/30 11:03:06;;;;;;;;;;;;;;;6.50;74.08;102568.78;2569281;30;136950;-38
2022/01/30 11:05:54;;;;;;;;;;;;;;;6.50;72.37;102565.22;2569937;30;137383;-38
2022/01/30 11:08:25;;;;;;;;;;;;;;;6.57;72.39;102574.47;2567711;30;138057;-38
2022/01/30 11:11:02;;;;;;;;;;;;;;;6.59;73.44;102578.78;2568828;30;138476;-38
2022/01/30 11:13:33;;;;;;;;;;;;;;;6.60;71.26;102572.34;2569111;30;136788;-37
2022/01/30 11:18:51;;;;;;;;;;;;;;;6.73;73.57;102571.19;2569671;30;136984;-38
2022/01/30 11:21:21;;;;;;;;;;;;;;;6.85;71.85;102575.47;2566601;30;138435;-38
2022/01/30 11:23:50;;;;;;;;;;;;;;;6.96;72.30;102569.03;2568079;30;137876;-38
2022/01/30 11:26:18;;;;;;;;;;;;;;;7.01;71.14;102572.16;2569614;30;138214;-38
2022/01/30 11:28:46;;;;;;;;;;;;;;;6.93;69.42;102566.63;2567176;30;138024;-38
2022/01/30 11:31:17;;;;;;;;;;;;;;;6.93;70.45;102572.03;2568930;30;138528;-38
2022/01/30 11:33:45;;;;;;;;;;;;;;;6.86;69.58;102560.91;2568287;30;137386;-38
2022/01/30 11:36:13;;;;;;;;;;;;;;;6.79;69.96;102567.91;2567676;30;138396;-38
2022/01/30 11:38:41;;;;;;;;;;;;;;;6.66;72.40;102557.38;2568892;30;137754;-38
2022/01/30 11:41:13;;;;;;;;;;;;;;;6.55;70.10;102558.38;2568241;30;138920;-38
2022/01/30 11:44:01;;;;;;;;;;;;;;;6.40;71.46;102552.53;2568841;30;137177;-38
2022/01/30 11:46:29;;;;;;;;;;;;;;;6.43;73.31;102538.69;2569453;30;138282;-38
2022/01/30 11:49:10;;;;;;;;;;;;;;;6.54;68.29;102543.09;2567064;30;138281;-38
2022/01/30 11:51:51;;;;;;;;;;;;;;;6.61;65.31;102543.34;2566320;30;139158;-38
2022/01/30 11:54:38;;;;;;;;;;;;;;;6.54;65.23;102544.94;2567657;30;136905;-38
2022/01/30 11:57:18;;;;;;;;;;;;;;;6.56;64.31;102543.81;2567401;30;139060;-38
2022/01/30 11:59:46;;;;;;;;;;;;;;;6.66;64.72;102545.66;2568465;30;136920;-37
2022/01/30 12:02:23;;;;;;;;;;;;;;;6.79;68.39;102532.66;2567666;30;139059;-38
2022/01/30 12:04:57;;;;;;;;;;;;;;;6.78;64.82;102535.50;2568444;30;137162;-37
2022/01/30 12:07:31;;;;;;;;;;;;;;;6.84;67.13;102529.47;2569528;30;137082;-37
2022/01/30 12:10:32;;;;;;;;;;;;;;;6.97;66.60;102535.47;2568151;30;136808;-38
2022/01/30 12:13:01;;;;;;;;;;;;;;;7.08;64.65;102530.84;2567478;30;137437;-37
2022/01/30 12:15:39;;;;;;;;;;;;;;;7.18;64.82;102524.41;2568917;30;137255;-38
2022/01/30 12:18:08;;;;;;;;;;;;;;;7.25;62.77;102534.66;2567916;30;139396;-38
2022/01/30 12:20:55;;;;;;;;;;;;;;;7.22;63.45;102533.09;2568326;30;137252;-38
2022/01/30 12:23:24;;;;;;;;;;;;;;;7.26;62.62;102539.94;2568181;30;138409;-38
2022/01/30 12:25:53;;;;;;;;;;;;;;;7.29;62.53;102534.22;2568064;30;137965;-38
2022/01/30 12:28:39;;;;;;;;;;;;;;;7.42;62.20;102536.59;2565837;30;139096;-38
2022/01/30 12:31:25;;;;;;;;;;;;;;;7.51;60.33;102529.41;2568275;30;137209;-38
2022/01/30 12:34:15;;;;;;;;;;;;;;;7.54;62.12;102534.53;2569519;30;138196;-37
2022/01/30 12:36:50;;;;;;;;;;;;;;;7.41;60.36;102529.47;2567595;30;137235;-37
2022/01/30 12:39:23;;;;;;;;;;;;;;;7.27;60.93;102527.22;2568682;30;138218;-38
2022/01/30 12:41:51;;;;;;;;;;;;;;;7.14;62.42;102524.81;2568963;30;137290;-38
2022/01/30 12:44:20;;;;;;;;;;;;;;;7.19;66.23;102523.38;2568201;30;138511;-38
2022/01/30 12:46:53;;;;;;;;;;;;;;;7.08;63.83;102522.72;2566515;30;137142;-38
2022/01/30 12:49:22;;;;;;;;;;;;;;;7.11;64.05;102520.56;2568056;30;138591;-38
2022/01/30 12:51:54;;;;;;;;;;;;;;;7.07;63.78;102513.72;2568455;30;136898;-38
2022/01/30 12:54:24;;;;;;;;;;;;;;;6.98;64.30;102515.47;2566922;30;138663;-38
2022/01/30 12:56:53;;;;;;;;;;;;;;;7.00;64.34;102518.88;2565038;30;137201;-38
2022/01/30 12:59:23;;;;;;;;;;;;;;;7.08;66.52;102514.56;2568141;30;139215;-38
2022/01/30 13:01:51;;;;;;;;;;;;;;;7.04;65.45;102505.88;2567671;30;137202;-38
2022/01/30 13:04:28;;;;;;;;;;;;;;;7.00;64.79;102523.44;2569793;30;139154;-38
2022/01/30 13:06:55;;;;;;;;;;;;;;;6.82;64.81;102507.06;2568911;30;137233;-38
2022/01/30 13:09:27;;;;;;;;;;;;;;;6.81;64.95;102503.50;2567571;30;137454;-37
2022/01/30 13:11:56;;;;;;;;;;;;;;;6.76;65.64;102509.38;2566370;30;137142;-38
2022/01/30 13:14:44;;;;;;;;;;;;;;;6.70;64.42;102503.66;2569185;30;137169;-38
2022/01/30 13:17:12;;;;;;;;;;;;;;;6.71;64.34;102497.25;2568522;30;137219;-38
2022/01/30 19:22:33;;;;;;;;;;;;;;;1.30;100.00;102138.16;2567538;30;136950;-41
2022/01/30 19:25:01;;;;;;;;;;;;;;;1.29;100.00;102131.91;2565479;30;137546;-40
2022/01/30 19:27:29;;;;;;;;;;;;;;;1.31;100.00;102130.91;2567727;30;137427;-40
2022/01/30 19:29:57;;;;;;;;;;;;;;;1.28;100.00;102114.03;2567147;30;137403;-40
2022/01/30 19:32:25;;;;;;;;;;;;;;;1.26;100.00;102107.94;2568646;30;137848;-40
2022/01/30 19:34:52;;;;;;;;;;;;;;;1.30;100.00;102095.13;2568719;30;136748;-40
2022/01/30 19:37:20;;;;;;;;;;;;;;;1.36;100.00;102097.31;2567215;30;136730;-40
2022/01/30 19:39:48;;;;;;;;;;;;;;;1.40;100.00;102101.47;2568971;30;137419;-40
2022/01/30 19:42:19;;;;;;;;;;;;;;;1.48;100.00;102095.50;2567881;30;138513;-40
2022/01/30 19:44:52;;;;;;;;;;;;;;;1.55;100.00;102085.94;2566407;30;137078;-40
2022/01/30 19:47:24;;;;;;;;;;;;;;;1.59;100.00;102086.56;2568426;30;138465;-41
2022/01/30 19:49:54;;;;;;;;;;;;;;;1.63;100.00;102079.97;2569345;30;136778;-41
2022/01/30 19:52:22;;;;;;;;;;;;;;;1.68;100.00;102074.22;2568513;30;139308;-40
2022/01/30 19:54:50;;;;;;;;;;;;;;;1.72;100.00;102073.00;2568404;30;136850;-40
2022/01/30 19:57:18;;;;;;;;;;;;;;;1.76;100.00;102066.38;2567563;30;138249;-40
2022/01/30 19:59:45;;;;;;;;;;;;;;;1.79;100.00;102058.06;2566447;30;137451;-41
2022/01/30 20:02:14;;;;;;;;;;;;;;;1.81;100.00;102061.47;2568072;30;138124;-40
2022/01/30 20:04:42;;;;;;;;;;;;;;;1.84;100.00;102052.31;2568611;30;137042;-40
2022/01/30 20:07:14;;;;;;;;;;;;;;;1.86;100.00;102053.91;2567866;30;137732;-40
2022/01/30 20:09:42;;;;;;;;;;;;;;;1.88;99.83;102055.63;2569356;30;136754;-40
2022/01/30 20:12:10;;;;;;;;;;;;;;;1.93;99.30;102048.84;2568910;30;138319;-40